sensor_id;sensor_type;location;lat;lon;timestamp;P1;durP1;ratioP1;P2;durP2;ratioP2
26750;SDS011;14345;48.272;25.926;2023-05-29T00:00:50;6.88;;;4.85;;
26750;SDS011;14345;48.272;25.926;2023-05-29T00:03:17;8.50;;;4.72;;
26750;SDS011;14345;48.272;25.926;2023-05-29T00:05:43;6.40;;;4.75;;
26750;SDS011;14345;48.272;25.926;2023-05-29T00:08:09;7.13;;;4.35;;
26750;SDS011;14345;48.272;25.926;2023-05-29T00:10:35;7.18;;;4.47;;
26750;SDS011;14345;48.272;25.926;2023-05-29T00:13:02;9.35;;;5.43;;
26750;SDS011;14345;48.272;25.926;2023-05-29T00:15:28;6.70;;;4.53;;
26750;SDS011;14345;48.272;25.926;2023-05-29T00:17:55;7.93;;;4.70;;
26750;SDS011;14345;48.272;25.926;2023-05-29T00:20:21;4.95;;;4.35;;
26750;SDS011;14345;48.272;25.926;2023-05-29T00:22:47;8.13;;;4.80;;
26750;SDS011;14345;48.272;25.926;2023-05-29T00:25:14;6.15;;;4.10;;
26750;SDS011;14345;48.272;25.926;2023-05-29T00:27:40;6.25;;;4.28;;
26750;SDS011;14345;48.272;25.926;2023-05-29T00:30:07;5.65;;;3.95;;
26750;SDS011;14345;48.272;25.926;2023-05-29T00:32:33;6.82;;;4.75;;
26750;SDS011;14345;48.272;25.926;2023-05-29T00:34:59;5.93;;;4.15;;
26750;SDS011;14345;48.272;25.926;2023-05-29T00:37:25;6.10;;;4.25;;
26750;SDS011;14345;48.272;25.926;2023-05-29T00:39:51;8.13;;;4.35;;
26750;SDS011;14345;48.272;25.926;2023-05-29T00:42:17;7.43;;;3.80;;
26750;SDS011;14345;48.272;25.926;2023-05-29T00:44:44;8.90;;;3.72;;
26750;SDS011;14345;48.272;25.926;2023-05-29T00:47:11;5.93;;;3.97;;
26750;SDS011;14345;48.272;25.926;2023-05-29T00:49:37;8.07;;;4.13;;
26750;SDS011;14345;48.272;25.926;2023-05-29T00:52:03;7.03;;;3.78;;
26750;SDS011;14345;48.272;25.926;2023-05-29T00:54:31;5.90;;;3.65;;
26750;SDS011;14345;48.272;25.926;2023-05-29T00:56:58;5.40;;;3.78;;
26750;SDS011;14345;48.272;25.926;2023-05-29T00:59:26;5.63;;;3.47;;
26750;SDS011;14345;48.272;25.926;2023-05-29T01:01:52;6.20;;;4.00;;
26750;SDS011;14345;48.272;25.926;2023-05-29T01:04:19;7.50;;;3.65;;
26750;SDS011;14345;48.272;25.926;2023-05-29T01:06:46;7.47;;;4.15;;
26750;SDS011;14345;48.272;25.926;2023-05-29T01:09:12;5.95;;;3.83;;
26750;SDS011;14345;48.272;25.926;2023-05-29T01:11:42;6.50;;;3.63;;
26750;SDS011;14345;48.272;25.926;2023-05-29T01:14:14;4.78;;;3.60;;
26750;SDS011;14345;48.272;25.926;2023-05-29T01:16:43;7.63;;;3.67;;
26750;SDS011;14345;48.272;25.926;2023-05-29T01:19:17;7.50;;;3.92;;
26750;SDS011;14345;48.272;25.926;2023-05-29T01:21:56;5.43;;;3.85;;
26750;SDS011;14345;48.272;25.926;2023-05-29T01:26:51;4.72;;;3.60;;
26750;SDS011;14345;48.272;25.926;2023-05-29T01:29:21;7.50;;;3.80;;
26750;SDS011;14345;48.272;25.926;2023-05-29T01:31:48;8.70;;;3.55;;
26750;SDS011;14345;48.272;25.926;2023-05-29T01:34:15;5.35;;;3.65;;
26750;SDS011;14345;48.272;25.926;2023-05-29T01:36:41;6.28;;;4.10;;
26750;SDS011;14345;48.272;25.926;2023-05-29T01:39:07;6.40;;;3.88;;
26750;SDS011;14345;48.272;25.926;2023-05-29T01:41:34;6.43;;;4.00;;
26750;SDS011;14345;48.272;25.926;2023-05-29T01:44:02;6.53;;;3.92;;
26750;SDS011;14345;48.272;25.926;2023-05-29T01:46:28;5.32;;;3.95;;
26750;SDS011;14345;48.272;25.926;2023-05-29T01:48:54;6.35;;;3.83;;
26750;SDS011;14345;48.272;25.926;2023-05-29T01:51:21;6.20;;;4.18;;
26750;SDS011;14345;48.272;25.926;2023-05-29T01:53:47;7.55;;;4.07;;
26750;SDS011;14345;48.272;25.926;2023-05-29T01:56:13;7.28;;;3.70;;
26750;SDS011;14345;48.272;25.926;2023-05-29T01:58:40;6.22;;;4.60;;
26750;SDS011;14345;48.272;25.926;2023-05-29T02:01:06;6.25;;;3.92;;
26750;SDS011;14345;48.272;25.926;2023-05-29T02:03:33;9.55;;;3.92;;
26750;SDS011;14345;48.272;25.926;2023-05-29T02:06:00;6.30;;;3.72;;
26750;SDS011;14345;48.272;25.926;2023-05-29T02:08:26;5.63;;;3.55;;
26750;SDS011;14345;48.272;25.926;2023-05-29T02:10:52;6.20;;;4.05;;
26750;SDS011;14345;48.272;25.926;2023-05-29T02:13:18;6.18;;;3.70;;
26750;SDS011;14345;48.272;25.926;2023-05-29T02:15:45;7.80;;;4.47;;
26750;SDS011;14345;48.272;25.926;2023-05-29T02:18:13;8.18;;;5.43;;
26750;SDS011;14345;48.272;25.926;2023-05-29T02:20:39;8.07;;;4.90;;
26750;SDS011;14345;48.272;25.926;2023-05-29T02:23:05;9.55;;;5.55;;
26750;SDS011;14345;48.272;25.926;2023-05-29T02:25:31;5.82;;;4.07;;
26750;SDS011;14345;48.272;25.926;2023-05-29T02:27:57;5.75;;;3.95;;
26750;SDS011;14345;48.272;25.926;2023-05-29T02:30:23;6.03;;;3.38;;
26750;SDS011;14345;48.272;25.926;2023-05-29T02:32:49;6.63;;;3.83;;
26750;SDS011;14345;48.272;25.926;2023-05-29T02:35:16;4.63;;;3.97;;
26750;SDS011;14345;48.272;25.926;2023-05-29T02:37:45;5.30;;;3.13;;
26750;SDS011;14345;48.272;25.926;2023-05-29T02:40:11;8.15;;;4.55;;
26750;SDS011;14345;48.272;25.926;2023-05-29T02:42:37;7.07;;;3.60;;
26750;SDS011;14345;48.272;25.926;2023-05-29T02:45:04;5.20;;;3.70;;
26750;SDS011;14345;48.272;25.926;2023-05-29T02:47:30;5.28;;;3.78;;
26750;SDS011;14345;48.272;25.926;2023-05-29T02:49:56;7.57;;;4.78;;
26750;SDS011;14345;48.272;25.926;2023-05-29T02:52:22;10.05;;;4.97;;
26750;SDS011;14345;48.272;25.926;2023-05-29T02:54:48;8.13;;;5.05;;
26750;SDS011;14345;48.272;25.926;2023-05-29T02:57:15;6.82;;;4.07;;
26750;SDS011;14345;48.272;25.926;2023-05-29T02:59:41;10.73;;;4.60;;
26750;SDS011;14345;48.272;25.926;2023-05-29T03:02:09;8.43;;;5.35;;
26750;SDS011;14345;48.272;25.926;2023-05-29T03:04:35;18.25;;;10.43;;
26750;SDS011;14345;48.272;25.926;2023-05-29T03:07:01;17.20;;;11.32;;
26750;SDS011;14345;48.272;25.926;2023-05-29T03:09:27;17.83;;;10.68;;
26750;SDS011;14345;48.272;25.926;2023-05-29T03:11:53;12.23;;;8.02;;
26750;SDS011;14345;48.272;25.926;2023-05-29T03:14:19;13.48;;;6.97;;
26750;SDS011;14345;48.272;25.926;2023-05-29T03:16:46;11.75;;;6.57;;
26750;SDS011;14345;48.272;25.926;2023-05-29T03:19:12;11.07;;;5.82;;
26750;SDS011;14345;48.272;25.926;2023-05-29T03:21:38;10.40;;;6.03;;
26750;SDS011;14345;48.272;25.926;2023-05-29T03:24:05;10.02;;;5.72;;
26750;SDS011;14345;48.272;25.926;2023-05-29T03:26:31;8.07;;;5.05;;
26750;SDS011;14345;48.272;25.926;2023-05-29T03:28:57;7.30;;;5.05;;
26750;SDS011;14345;48.272;25.926;2023-05-29T03:31:23;8.30;;;5.15;;
26750;SDS011;14345;48.272;25.926;2023-05-29T03:33:49;10.75;;;5.32;;
26750;SDS011;14345;48.272;25.926;2023-05-29T03:36:15;10.55;;;4.47;;
26750;SDS011;14345;48.272;25.926;2023-05-29T03:38:44;10.77;;;7.38;;
26750;SDS011;14345;48.272;25.926;2023-05-29T03:41:10;18.02;;;12.20;;
26750;SDS011;14345;48.272;25.926;2023-05-29T03:43:37;19.23;;;13.43;;
26750;SDS011;14345;48.272;25.926;2023-05-29T03:46:03;15.43;;;9.90;;
26750;SDS011;14345;48.272;25.926;2023-05-29T03:48:29;13.05;;;6.80;;
26750;SDS011;14345;48.272;25.926;2023-05-29T03:50:55;9.95;;;6.03;;
26750;SDS011;14345;48.272;25.926;2023-05-29T03:53:21;9.50;;;5.00;;
26750;SDS011;14345;48.272;25.926;2023-05-29T03:55:47;8.15;;;5.78;;
26750;SDS011;14345;48.272;25.926;2023-05-29T03:58:13;12.25;;;6.97;;
26750;SDS011;14345;48.272;25.926;2023-05-29T04:00:40;15.20;;;8.98;;
26750;SDS011;14345;48.272;25.926;2023-05-29T04:03:06;10.75;;;7.63;;
26750;SDS011;14345;48.272;25.926;2023-05-29T04:05:32;10.88;;;6.45;;
26750;SDS011;14345;48.272;25.926;2023-05-29T04:07:58;12.70;;;6.40;;
26750;SDS011;14345;48.272;25.926;2023-05-29T04:10:25;10.07;;;5.32;;
26750;SDS011;14345;48.272;25.926;2023-05-29T04:12:51;7.10;;;4.90;;
26750;SDS011;14345;48.272;25.926;2023-05-29T04:15:17;7.63;;;4.85;;
26750;SDS011;14345;48.272;25.926;2023-05-29T04:17:43;10.75;;;4.55;;
26750;SDS011;14345;48.272;25.926;2023-05-29T04:20:10;7.72;;;4.82;;
26750;SDS011;14345;48.272;25.926;2023-05-29T04:22:36;7.32;;;4.47;;
26750;SDS011;14345;48.272;25.926;2023-05-29T04:25:02;7.55;;;4.50;;
26750;SDS011;14345;48.272;25.926;2023-05-29T04:27:29;8.13;;;4.93;;
26750;SDS011;14345;48.272;25.926;2023-05-29T04:29:56;9.00;;;5.30;;
26750;SDS011;14345;48.272;25.926;2023-05-29T04:32:23;9.63;;;5.05;;
26750;SDS011;14345;48.272;25.926;2023-05-29T04:34:49;9.05;;;4.80;;
26750;SDS011;14345;48.272;25.926;2023-05-29T04:37:16;8.73;;;4.72;;
26750;SDS011;14345;48.272;25.926;2023-05-29T04:39:42;10.90;;;5.80;;
26750;SDS011;14345;48.272;25.926;2023-05-29T04:42:08;7.80;;;5.30;;
26750;SDS011;14345;48.272;25.926;2023-05-29T04:44:35;12.02;;;6.00;;
26750;SDS011;14345;48.272;25.926;2023-05-29T04:47:01;9.73;;;5.85;;
26750;SDS011;14345;48.272;25.926;2023-05-29T04:49:28;11.90;;;6.22;;
26750;SDS011;14345;48.272;25.926;2023-05-29T04:51:54;12.35;;;6.22;;
26750;SDS011;14345;48.272;25.926;2023-05-29T04:54:21;9.98;;;5.95;;
26750;SDS011;14345;48.272;25.926;2023-05-29T04:56:48;7.70;;;5.40;;
26750;SDS011;14345;48.272;25.926;2023-05-29T04:59:14;10.32;;;6.25;;
26750;SDS011;14345;48.272;25.926;2023-05-29T05:01:40;11.48;;;5.70;;
26750;SDS011;14345;48.272;25.926;2023-05-29T05:04:09;8.48;;;5.15;;
26750;SDS011;14345;48.272;25.926;2023-05-29T05:06:35;11.52;;;7.80;;
26750;SDS011;14345;48.272;25.926;2023-05-29T05:09:02;29.92;;;19.58;;
26750;SDS011;14345;48.272;25.926;2023-05-29T05:11:28;16.30;;;12.20;;
26750;SDS011;14345;48.272;25.926;2023-05-29T05:13:54;15.15;;;10.23;;
26750;SDS011;14345;48.272;25.926;2023-05-29T05:16:20;11.32;;;8.52;;
26750;SDS011;14345;48.272;25.926;2023-05-29T05:18:46;15.18;;;8.93;;
26750;SDS011;14345;48.272;25.926;2023-05-29T05:21:12;11.55;;;6.05;;
26750;SDS011;14345;48.272;25.926;2023-05-29T05:23:38;7.95;;;5.13;;
26750;SDS011;14345;48.272;25.926;2023-05-29T05:26:04;10.27;;;5.70;;
26750;SDS011;14345;48.272;25.926;2023-05-29T05:28:31;6.90;;;4.90;;
26750;SDS011;14345;48.272;25.926;2023-05-29T05:30:58;11.32;;;4.90;;
26750;SDS011;14345;48.272;25.926;2023-05-29T05:33:24;8.07;;;5.82;;
26750;SDS011;14345;48.272;25.926;2023-05-29T05:35:50;7.68;;;5.68;;
26750;SDS011;14345;48.272;25.926;2023-05-29T05:38:16;8.20;;;5.75;;
26750;SDS011;14345;48.272;25.926;2023-05-29T05:40:42;8.73;;;5.80;;
26750;SDS011;14345;48.272;25.926;2023-05-29T05:43:10;11.40;;;5.78;;
26750;SDS011;14345;48.272;25.926;2023-05-29T05:45:36;5.85;;;4.53;;
26750;SDS011;14345;48.272;25.926;2023-05-29T05:48:07;5.80;;;4.50;;
26750;SDS011;14345;48.272;25.926;2023-05-29T05:50:33;11.50;;;5.18;;
26750;SDS011;14345;48.272;25.926;2023-05-29T05:52:59;6.53;;;4.10;;
26750;SDS011;14345;48.272;25.926;2023-05-29T05:55:25;7.70;;;3.90;;
26750;SDS011;14345;48.272;25.926;2023-05-29T05:57:52;6.55;;;3.53;;
26750;SDS011;14345;48.272;25.926;2023-05-29T06:00:19;6.45;;;3.88;;
26750;SDS011;14345;48.272;25.926;2023-05-29T06:02:45;6.03;;;3.70;;
26750;SDS011;14345;48.272;25.926;2023-05-29T06:05:11;7.90;;;4.10;;
26750;SDS011;14345;48.272;25.926;2023-05-29T06:07:37;5.57;;;3.60;;
26750;SDS011;14345;48.272;25.926;2023-05-29T06:10:04;5.15;;;3.67;;
26750;SDS011;14345;48.272;25.926;2023-05-29T06:12:30;7.65;;;3.95;;
26750;SDS011;14345;48.272;25.926;2023-05-29T06:14:56;7.70;;;4.35;;
26750;SDS011;14345;48.272;25.926;2023-05-29T06:17:22;5.85;;;4.00;;
26750;SDS011;14345;48.272;25.926;2023-05-29T06:19:48;6.13;;;4.15;;
26750;SDS011;14345;48.272;25.926;2023-05-29T06:22:14;8.55;;;4.25;;
26750;SDS011;14345;48.272;25.926;2023-05-29T06:24:41;6.00;;;4.18;;
26750;SDS011;14345;48.272;25.926;2023-05-29T06:27:07;8.10;;;4.55;;
26750;SDS011;14345;48.272;25.926;2023-05-29T06:29:33;7.57;;;4.60;;
26750;SDS011;14345;48.272;25.926;2023-05-29T06:31:59;8.50;;;4.43;;
26750;SDS011;14345;48.272;25.926;2023-05-29T06:34:26;4.65;;;3.47;;
26750;SDS011;14345;48.272;25.926;2023-05-29T06:36:52;5.63;;;3.67;;
26750;SDS011;14345;48.272;25.926;2023-05-29T06:39:18;7.07;;;3.85;;
26750;SDS011;14345;48.272;25.926;2023-05-29T06:41:45;7.00;;;3.30;;
26750;SDS011;14345;48.272;25.926;2023-05-29T06:44:11;6.05;;;3.70;;
26750;SDS011;14345;48.272;25.926;2023-05-29T06:46:37;8.27;;;3.90;;
26750;SDS011;14345;48.272;25.926;2023-05-29T06:49:03;5.72;;;3.63;;
26750;SDS011;14345;48.272;25.926;2023-05-29T06:51:29;8.07;;;4.15;;
26750;SDS011;14345;48.272;25.926;2023-05-29T06:53:57;6.63;;;3.80;;
26750;SDS011;14345;48.272;25.926;2023-05-29T06:56:23;5.18;;;3.63;;
26750;SDS011;14345;48.272;25.926;2023-05-29T06:58:50;8.82;;;3.60;;
26750;SDS011;14345;48.272;25.926;2023-05-29T07:01:16;5.97;;;3.58;;
26750;SDS011;14345;48.272;25.926;2023-05-29T07:03:42;6.78;;;3.38;;
26750;SDS011;14345;48.272;25.926;2023-05-29T07:06:09;6.03;;;3.60;;
26750;SDS011;14345;48.272;25.926;2023-05-29T07:08:35;6.20;;;3.63;;
26750;SDS011;14345;48.272;25.926;2023-05-29T07:11:01;7.47;;;3.70;;
26750;SDS011;14345;48.272;25.926;2023-05-29T07:13:27;8.05;;;4.22;;
26750;SDS011;14345;48.272;25.926;2023-05-29T07:15:53;6.88;;;3.58;;
26750;SDS011;14345;48.272;25.926;2023-05-29T07:18:19;8.23;;;3.90;;
26750;SDS011;14345;48.272;25.926;2023-05-29T07:20:45;8.48;;;3.63;;
26750;SDS011;14345;48.272;25.926;2023-05-29T07:23:11;7.15;;;3.50;;
26750;SDS011;14345;48.272;25.926;2023-05-29T07:25:37;10.98;;;4.65;;
26750;SDS011;14345;48.272;25.926;2023-05-29T07:28:03;8.60;;;4.03;;
26750;SDS011;14345;48.272;25.926;2023-05-29T07:30:30;7.50;;;4.07;;
26750;SDS011;14345;48.272;25.926;2023-05-29T07:32:56;5.90;;;3.70;;
26750;SDS011;14345;48.272;25.926;2023-05-29T07:35:22;6.00;;;3.45;;
26750;SDS011;14345;48.272;25.926;2023-05-29T07:37:48;4.63;;;2.95;;
26750;SDS011;14345;48.272;25.926;2023-05-29T07:40:16;6.72;;;3.40;;
26750;SDS011;14345;48.272;25.926;2023-05-29T07:42:42;8.57;;;3.60;;
26750;SDS011;14345;48.272;25.926;2023-05-29T07:45:08;12.45;;;4.40;;
26750;SDS011;14345;48.272;25.926;2023-05-29T07:47:36;7.35;;;3.97;;
26750;SDS011;14345;48.272;25.926;2023-05-29T07:50:02;5.82;;;3.42;;
26750;SDS011;14345;48.272;25.926;2023-05-29T07:52:28;7.82;;;3.40;;
26750;SDS011;14345;48.272;25.926;2023-05-29T07:54:54;7.05;;;2.78;;
26750;SDS011;14345;48.272;25.926;2023-05-29T07:57:20;5.45;;;3.40;;
26750;SDS011;14345;48.272;25.926;2023-05-29T07:59:46;4.63;;;3.20;;
26750;SDS011;14345;48.272;25.926;2023-05-29T08:02:14;5.75;;;2.78;;
26750;SDS011;14345;48.272;25.926;2023-05-29T08:04:41;5.07;;;3.03;;
26750;SDS011;14345;48.272;25.926;2023-05-29T08:07:07;4.85;;;3.00;;
26750;SDS011;14345;48.272;25.926;2023-05-29T08:09:34;6.47;;;3.85;;
26750;SDS011;14345;48.272;25.926;2023-05-29T08:12:00;7.38;;;3.55;;
26750;SDS011;14345;48.272;25.926;2023-05-29T08:14:27;6.72;;;3.00;;
26750;SDS011;14345;48.272;25.926;2023-05-29T08:16:53;5.28;;;3.55;;
26750;SDS011;14345;48.272;25.926;2023-05-29T08:19:19;7.40;;;3.50;;
26750;SDS011;14345;48.272;25.926;2023-05-29T08:21:45;3.47;;;3.03;;
26750;SDS011;14345;48.272;25.926;2023-05-29T08:24:11;4.90;;;3.22;;
26750;SDS011;14345;48.272;25.926;2023-05-29T08:26:37;7.72;;;3.03;;
26750;SDS011;14345;48.272;25.926;2023-05-29T08:29:03;5.53;;;2.83;;
26750;SDS011;14345;48.272;25.926;2023-05-29T08:31:30;6.97;;;3.20;;
26750;SDS011;14345;48.272;25.926;2023-05-29T08:33:56;4.50;;;2.70;;
26750;SDS011;14345;48.272;25.926;2023-05-29T08:36:23;4.10;;;3.05;;
26750;SDS011;14345;48.272;25.926;2023-05-29T08:38:49;9.00;;;3.42;;
26750;SDS011;14345;48.272;25.926;2023-05-29T08:41:21;6.35;;;3.45;;
26750;SDS011;14345;48.272;25.926;2023-05-29T08:43:51;4.05;;;2.83;;
26750;SDS011;14345;48.272;25.926;2023-05-29T08:46:18;5.00;;;2.80;;
26750;SDS011;14345;48.272;25.926;2023-05-29T08:48:47;3.78;;;2.67;;
26750;SDS011;14345;48.272;25.926;2023-05-29T08:51:14;4.45;;;2.22;;
26750;SDS011;14345;48.272;25.926;2023-05-29T08:53:41;4.28;;;2.60;;
26750;SDS011;14345;48.272;25.926;2023-05-29T08:56:08;5.00;;;2.60;;
26750;SDS011;14345;48.272;25.926;2023-05-29T08:58:34;3.40;;;2.30;;
26750;SDS011;14345;48.272;25.926;2023-05-29T09:01:00;10.93;;;3.33;;
26750;SDS011;14345;48.272;25.926;2023-05-29T09:03:27;5.28;;;2.50;;
26750;SDS011;14345;48.272;25.926;2023-05-29T09:05:57;3.83;;;2.33;;
26750;SDS011;14345;48.272;25.926;2023-05-29T09:08:24;4.38;;;2.40;;
26750;SDS011;14345;48.272;25.926;2023-05-29T09:10:51;4.47;;;2.30;;
26750;SDS011;14345;48.272;25.926;2023-05-29T09:13:17;4.70;;;2.40;;
26750;SDS011;14345;48.272;25.926;2023-05-29T09:15:43;2.63;;;2.03;;
26750;SDS011;14345;48.272;25.926;2023-05-29T09:18:10;5.65;;;2.75;;
26750;SDS011;14345;48.272;25.926;2023-05-29T09:20:37;5.22;;;2.72;;
26750;SDS011;14345;48.272;25.926;2023-05-29T09:23:04;3.88;;;2.45;;
26750;SDS011;14345;48.272;25.926;2023-05-29T09:25:31;6.22;;;2.58;;
26750;SDS011;14345;48.272;25.926;2023-05-29T09:30:37;5.78;;;2.58;;
26750;SDS011;14345;48.272;25.926;2023-05-29T09:33:03;6.93;;;3.17;;
26750;SDS011;14345;48.272;25.926;2023-05-29T09:38:02;3.30;;;2.40;;
26750;SDS011;14345;48.272;25.926;2023-05-29T09:40:32;5.10;;;2.75;;
26750;SDS011;14345;48.272;25.926;2023-05-29T09:43:05;4.63;;;2.78;;
26750;SDS011;14345;48.272;25.926;2023-05-29T09:45:32;2.72;;;2.20;;
26750;SDS011;14345;48.272;25.926;2023-05-29T09:47:58;7.47;;;2.40;;
26750;SDS011;14345;48.272;25.926;2023-05-29T09:50:27;6.53;;;2.85;;
26750;SDS011;14345;48.272;25.926;2023-05-29T09:52:56;7.50;;;3.33;;
26750;SDS011;14345;48.272;25.926;2023-05-29T09:55:25;9.45;;;3.22;;
26750;SDS011;14345;48.272;25.926;2023-05-29T09:57:53;6.05;;;3.00;;
26750;SDS011;14345;48.272;25.926;2023-05-29T10:00:20;4.70;;;2.63;;
26750;SDS011;14345;48.272;25.926;2023-05-29T10:02:47;8.60;;;4.57;;
26750;SDS011;14345;48.272;25.926;2023-05-29T10:05:14;8.75;;;3.22;;
26750;SDS011;14345;48.272;25.926;2023-05-29T10:07:44;6.28;;;3.78;;
26750;SDS011;14345;48.272;25.926;2023-05-29T10:10:12;6.13;;;3.45;;
26750;SDS011;14345;48.272;25.926;2023-05-29T10:12:39;7.60;;;3.20;;
26750;SDS011;14345;48.272;25.926;2023-05-29T10:15:12;5.32;;;2.55;;
26750;SDS011;14345;48.272;25.926;2023-05-29T10:20:41;4.07;;;2.50;;
26750;SDS011;14345;48.272;25.926;2023-05-29T10:23:09;4.65;;;2.35;;
26750;SDS011;14345;48.272;25.926;2023-05-29T10:25:36;4.35;;;2.95;;
26750;SDS011;14345;48.272;25.926;2023-05-29T10:28:02;5.18;;;2.53;;
26750;SDS011;14345;48.272;25.926;2023-05-29T10:30:50;4.05;;;2.60;;
26750;SDS011;14345;48.272;25.926;2023-05-29T10:35:48;3.22;;;2.10;;
26750;SDS011;14345;48.272;25.926;2023-05-29T10:38:17;5.20;;;2.20;;
26750;SDS011;14345;48.272;25.926;2023-05-29T10:40:44;3.33;;;2.13;;
26750;SDS011;14345;48.272;25.926;2023-05-29T10:46:12;3.92;;;1.90;;
26750;SDS011;14345;48.272;25.926;2023-05-29T10:48:38;5.05;;;2.55;;
26750;SDS011;14345;48.272;25.926;2023-05-29T10:51:05;3.95;;;2.10;;
26750;SDS011;14345;48.272;25.926;2023-05-29T10:53:32;2.92;;;1.95;;
26750;SDS011;14345;48.272;25.926;2023-05-29T10:55:59;3.35;;;2.47;;
26750;SDS011;14345;48.272;25.926;2023-05-29T10:58:29;4.75;;;2.30;;
26750;SDS011;14345;48.272;25.926;2023-05-29T11:00:55;4.63;;;2.30;;
26750;SDS011;14345;48.272;25.926;2023-05-29T11:03:24;2.65;;;1.98;;
26750;SDS011;14345;48.272;25.926;2023-05-29T11:08:35;3.70;;;1.77;;
26750;SDS011;14345;48.272;25.926;2023-05-29T11:11:07;3.33;;;2.05;;
26750;SDS011;14345;48.272;25.926;2023-05-29T11:13:37;4.13;;;2.05;;
26750;SDS011;14345;48.272;25.926;2023-05-29T11:16:12;5.25;;;3.30;;
26750;SDS011;14345;48.272;25.926;2023-05-29T11:18:41;5.90;;;3.83;;
26750;SDS011;14345;48.272;25.926;2023-05-29T11:23:57;2.78;;;2.20;;
26750;SDS011;14345;48.272;25.926;2023-05-29T11:26:25;2.97;;;2.38;;
26750;SDS011;14345;48.272;25.926;2023-05-29T11:28:52;4.30;;;1.95;;
26750;SDS011;14345;48.272;25.926;2023-05-29T11:31:19;3.60;;;2.10;;
26750;SDS011;14345;48.272;25.926;2023-05-29T11:33:48;2.75;;;1.60;;
26750;SDS011;14345;48.272;25.926;2023-05-29T11:36:17;5.10;;;2.33;;
26750;SDS011;14345;48.272;25.926;2023-05-29T11:38:44;3.67;;;1.70;;
26750;SDS011;14345;48.272;25.926;2023-05-29T11:41:11;2.22;;;1.95;;
26750;SDS011;14345;48.272;25.926;2023-05-29T11:43:37;2.72;;;1.65;;
26750;SDS011;14345;48.272;25.926;2023-05-29T11:46:14;2.13;;;1.83;;
26750;SDS011;14345;48.272;25.926;2023-05-29T11:48:46;2.67;;;2.00;;
26750;SDS011;14345;48.272;25.926;2023-05-29T11:51:12;3.55;;;1.75;;
26750;SDS011;14345;48.272;25.926;2023-05-29T11:53:42;4.78;;;2.00;;
26750;SDS011;14345;48.272;25.926;2023-05-29T11:56:11;4.15;;;1.73;;
26750;SDS011;14345;48.272;25.926;2023-05-29T11:58:38;3.58;;;2.05;;
26750;SDS011;14345;48.272;25.926;2023-05-29T12:01:04;2.95;;;2.03;;
26750;SDS011;14345;48.272;25.926;2023-05-29T12:03:31;6.35;;;3.22;;
26750;SDS011;14345;48.272;25.926;2023-05-29T12:05:57;3.80;;;2.28;;
26750;SDS011;14345;48.272;25.926;2023-05-29T12:08:23;4.00;;;2.75;;
26750;SDS011;14345;48.272;25.926;2023-05-29T12:10:50;4.40;;;3.15;;
26750;SDS011;14345;48.272;25.926;2023-05-29T12:13:18;4.00;;;2.28;;
26750;SDS011;14345;48.272;25.926;2023-05-29T12:15:45;2.83;;;2.13;;
26750;SDS011;14345;48.272;25.926;2023-05-29T12:18:11;6.68;;;2.20;;
26750;SDS011;14345;48.272;25.926;2023-05-29T12:20:37;1.92;;;1.73;;
26750;SDS011;14345;48.272;25.926;2023-05-29T12:23:04;2.97;;;2.67;;
26750;SDS011;14345;48.272;25.926;2023-05-29T12:25:30;4.70;;;2.50;;
26750;SDS011;14345;48.272;25.926;2023-05-29T12:27:57;3.60;;;2.33;;
26750;SDS011;14345;48.272;25.926;2023-05-29T12:30:23;3.33;;;2.03;;
26750;SDS011;14345;48.272;25.926;2023-05-29T12:32:50;2.55;;;2.10;;
26750;SDS011;14345;48.272;25.926;2023-05-29T12:35:17;2.65;;;1.90;;
26750;SDS011;14345;48.272;25.926;2023-05-29T12:40:19;2.85;;;1.90;;
26750;SDS011;14345;48.272;25.926;2023-05-29T12:42:53;5.53;;;2.03;;
26750;SDS011;14345;48.272;25.926;2023-05-29T12:45:21;3.50;;;2.20;;
26750;SDS011;14345;48.272;25.926;2023-05-29T12:47:50;2.38;;;1.70;;
26750;SDS011;14345;48.272;25.926;2023-05-29T12:52:53;2.53;;;1.87;;
26750;SDS011;14345;48.272;25.926;2023-05-29T12:55:19;3.40;;;1.60;;
26750;SDS011;14345;48.272;25.926;2023-05-29T12:57:46;4.45;;;1.83;;
26750;SDS011;14345;48.272;25.926;2023-05-29T13:00:12;2.25;;;1.90;;
26750;SDS011;14345;48.272;25.926;2023-05-29T13:02:38;1.80;;;1.67;;
26750;SDS011;14345;48.272;25.926;2023-05-29T13:05:05;2.55;;;1.70;;
26750;SDS011;14345;48.272;25.926;2023-05-29T13:07:32;2.20;;;1.85;;
26750;SDS011;14345;48.272;25.926;2023-05-29T13:10:01;2.97;;;1.50;;
26750;SDS011;14345;48.272;25.926;2023-05-29T13:12:27;4.43;;;1.92;;
26750;SDS011;14345;48.272;25.926;2023-05-29T13:14:53;4.93;;;1.77;;
26750;SDS011;14345;48.272;25.926;2023-05-29T13:17:22;5.28;;;2.17;;
26750;SDS011;14345;48.272;25.926;2023-05-29T13:19:48;1.80;;;1.55;;
26750;SDS011;14345;48.272;25.926;2023-05-29T13:22:14;2.22;;;1.77;;
26750;SDS011;14345;48.272;25.926;2023-05-29T13:24:40;4.72;;;1.85;;
26750;SDS011;14345;48.272;25.926;2023-05-29T13:27:07;4.15;;;1.90;;
26750;SDS011;14345;48.272;25.926;2023-05-29T13:29:33;1.77;;;1.50;;
26750;SDS011;14345;48.272;25.926;2023-05-29T13:32:00;4.65;;;1.80;;
26750;SDS011;14345;48.272;25.926;2023-05-29T13:34:26;2.47;;;1.33;;
26750;SDS011;14345;48.272;25.926;2023-05-29T13:36:57;3.30;;;2.05;;
26750;SDS011;14345;48.272;25.926;2023-05-29T13:39:23;5.75;;;2.20;;
26750;SDS011;14345;48.272;25.926;2023-05-29T13:41:49;4.20;;;1.90;;
26750;SDS011;14345;48.272;25.926;2023-05-29T13:44:16;3.00;;;1.85;;
26750;SDS011;14345;48.272;25.926;2023-05-29T13:46:42;5.43;;;2.03;;
26750;SDS011;14345;48.272;25.926;2023-05-29T13:49:08;5.88;;;1.92;;
26750;SDS011;14345;48.272;25.926;2023-05-29T13:51:34;2.17;;;1.55;;
26750;SDS011;14345;48.272;25.926;2023-05-29T13:54:02;2.55;;;1.30;;
26750;SDS011;14345;48.272;25.926;2023-05-29T13:56:28;4.50;;;1.75;;
26750;SDS011;14345;48.272;25.926;2023-05-29T13:58:55;2.80;;;1.60;;
26750;SDS011;14345;48.272;25.926;2023-05-29T14:01:21;2.53;;;1.80;;
26750;SDS011;14345;48.272;25.926;2023-05-29T14:03:49;2.92;;;1.75;;
26750;SDS011;14345;48.272;25.926;2023-05-29T14:06:15;1.88;;;1.30;;
26750;SDS011;14345;48.272;25.926;2023-05-29T14:08:41;1.77;;;1.60;;
26750;SDS011;14345;48.272;25.926;2023-05-29T14:11:07;3.80;;;1.73;;
26750;SDS011;14345;48.272;25.926;2023-05-29T14:13:33;3.42;;;1.70;;
26750;SDS011;14345;48.272;25.926;2023-05-29T14:15:59;2.28;;;1.52;;
26750;SDS011;14345;48.272;25.926;2023-05-29T14:18:25;3.90;;;3.50;;
26750;SDS011;14345;48.272;25.926;2023-05-29T14:20:51;3.83;;;3.33;;
26750;SDS011;14345;48.272;25.926;2023-05-29T14:23:17;2.40;;;2.17;;
26750;SDS011;14345;48.272;25.926;2023-05-29T14:25:44;2.10;;;1.80;;
26750;SDS011;14345;48.272;25.926;2023-05-29T14:28:10;3.15;;;1.60;;
26750;SDS011;14345;48.272;25.926;2023-05-29T14:30:36;3.60;;;1.73;;
26750;SDS011;14345;48.272;25.926;2023-05-29T14:33:02;3.38;;;1.70;;
26750;SDS011;14345;48.272;25.926;2023-05-29T14:35:29;3.05;;;1.88;;
26750;SDS011;14345;48.272;25.926;2023-05-29T14:37:55;2.72;;;1.50;;
26750;SDS011;14345;48.272;25.926;2023-05-29T14:40:21;1.98;;;1.38;;
26750;SDS011;14345;48.272;25.926;2023-05-29T14:42:47;1.98;;;1.42;;
26750;SDS011;14345;48.272;25.926;2023-05-29T14:45:13;3.15;;;1.55;;
26750;SDS011;14345;48.272;25.926;2023-05-29T14:47:40;2.85;;;1.58;;
26750;SDS011;14345;48.272;25.926;2023-05-29T14:50:06;4.07;;;1.55;;
26750;SDS011;14345;48.272;25.926;2023-05-29T14:52:32;4.63;;;1.30;;
26750;SDS011;14345;48.272;25.926;2023-05-29T14:55:01;2.55;;;1.67;;
26750;SDS011;14345;48.272;25.926;2023-05-29T14:57:27;3.75;;;1.38;;